^^
Meteo Knjazevac Station Historical Data
Daily Summary for January 8, 2021 Units:  Metric    English   Both
Daily Weekly Monthly Yearly Custom
  High: Low: Average:
Temperature: 17.9 °C 10.6 °C 13.2 °C
Dew Point: 11.6 °C 5.1 °C 7.3 °C
Humidity: 83% 43% 69%
Wind Speed: 22.5km/h 3.2km/h 11.6km/h
Wind Gust: 43.5km/h - -
Wind- - WSW
Pressure: 1022.2 hPa 1014.4 hPa -
Precipitation: 0 mm    
Historical Graphs
 
 
Tabular Data for January 8, 2021
Time Temperature Dew Point Pressure Wind Wind Speed Wind Gust Humidity Rainfall Rate (Hourly) solar Conditions
00:00 16.4 °C 11.6 °C 1014.4 hPa West 19.3 km/h 37 km/h 73% 0 mm 0 W/m2
00:10 15.7 °C 11.3 °C 1014.8 hPa WSW 20.9 km/h 43.5 km/h 75% 0 mm 0 W/m2
00:20 15.1 °C 11.1 °C 1015.1 hPa WSW 22.5 km/h 38.6 km/h 77% 0 mm 0 W/m2
00:30 14.7 °C 10.9 °C 1015.5 hPa WSW 16.1 km/h 37 km/h 78% 0 mm 0 W/m2
00:40 14.4 °C 10.6 °C 1015.5 hPa WSW 14.5 km/h 35.4 km/h 78% 0 mm 0 W/m2
00:50 14.1 °C 10.3 °C 1015.8 hPa WSW 14.5 km/h 25.7 km/h 78% 0 mm 0 W/m2
01:00 14 °C 10.2 °C 1015.8 hPa WSW 16.1 km/h 27.4 km/h 78% 0 mm 0 W/m2
01:10 13.8 °C 9.8 °C 1016.1 hPa WSW 19.3 km/h 32.2 km/h 77% 0 mm 0 W/m2
01:20 13.6 °C 9.7 °C 1016.5 hPa WSW 16.1 km/h 33.8 km/h 77% 0 mm 0 W/m2
01:30 13.3 °C 8.9 °C 1016.5 hPa WSW 16.1 km/h 35.4 km/h 75% 0 mm 0 W/m2
01:40 13 °C 9.1 °C 1016.8 hPa WSW 14.5 km/h 32.2 km/h 77% 0 mm 0 W/m2
01:50 12.8 °C 8.9 °C 1017.2 hPa WSW 12.9 km/h 24.1 km/h 77% 0 mm 0 W/m2
02:00 12.6 °C 8.7 °C 1017.5 hPa WSW 12.9 km/h 29 km/h 77% 0 mm 0 W/m2
02:10 12.4 °C 8.5 °C 1017.8 hPa WSW 12.9 km/h 24.1 km/h 77% 0 mm 0 W/m2
02:20 12.3 °C 8.4 °C 1017.8 hPa WSW 14.5 km/h 22.5 km/h 77% 0 mm 0 W/m2
02:30 12.2 °C 8.3 °C 1017.8 hPa West 4.8 km/h 19.3 km/h 77% 0 mm 0 W/m2
02:40 12.1 °C 8.4 °C 1018.2 hPa WSW 9.7 km/h 24.1 km/h 78% 0 mm 0 W/m2
02:50 12 °C 8.4 °C 1018.2 hPa WSW 8 km/h 27.4 km/h 79% 0 mm 0 W/m2
03:00 11.9 °C 8.4 °C 1018.5 hPa WSW 9.7 km/h 20.9 km/h 79% 0 mm 0 W/m2
03:10 11.8 °C 8.3 °C 1018.5 hPa West 11.3 km/h 19.3 km/h 79% 0 mm 0 W/m2
03:20 11.7 °C 8.4 °C 1018.5 hPa West 9.7 km/h 22.5 km/h 80% 0 mm 0 W/m2
03:30 11.5 °C 8.3 °C 1018.8 hPa West 9.7 km/h 22.5 km/h 81% 0 mm 0 W/m2
03:40 11.3 °C 8.2 °C 1018.8 hPa WSW 9.7 km/h 24.1 km/h 81% 0 mm 0 W/m2
03:50 11.2 °C 8.1 °C 1018.8 hPa WSW 9.7 km/h 19.3 km/h 81% 0 mm 0 W/m2
04:00 11.1 °C 7.9 °C 1019.2 hPa West 8 km/h 19.3 km/h 81% 0 mm 0 W/m2
04:10 11 °C 7.9 °C 1019.2 hPa West 3.2 km/h 9.7 km/h 81% 0 mm 0 W/m2
04:20 11 °C 7.9 °C 1019.2 hPa WSW 8 km/h 14.5 km/h 81% 0 mm 0 W/m2
04:30 11 °C 7.9 °C 1019.5 hPa WSW 4.8 km/h 11.3 km/h 81% 0 mm 0 W/m2
04:40 10.9 °C 7.8 °C 1019.5 hPa WSW 4.8 km/h 12.9 km/h 81% 0 mm 0 W/m2
04:50 10.9 °C 7.8 °C 1019.5 hPa WSW 4.8 km/h 14.5 km/h 81% 0 mm 0 W/m2
05:00 10.8 °C 7.7 °C 1019.5 hPa West 9.7 km/h 19.3 km/h 81% 0 mm 0 W/m2
05:10 10.7 °C 7.9 °C 1019.5 hPa WSW 11.3 km/h 19.3 km/h 83% 0 mm 0 W/m2
05:20 10.7 °C 7.9 °C 1019.5 hPa WSW 9.7 km/h 19.3 km/h 83% 0 mm 2 W/m2
05:30 10.6 °C 7.5 °C 1019.9 hPa WSW 8 km/h 20.9 km/h 81% 0 mm 6 W/m2
05:40 10.6 °C 7.8 °C 1019.9 hPa West 4.8 km/h 17.7 km/h 83% 0 mm 13 W/m2
05:50 10.6 °C 7.8 °C 1019.9 hPa WSW 4.8 km/h 12.9 km/h 83% 0 mm 20 W/m2
06:00 10.6 °C 7.8 °C 1020.2 hPa SW 4.8 km/h 17.7 km/h 83% 0 mm 21 W/m2
06:10 10.6 °C 7.5 °C 1020.2 hPa WSW 8 km/h 12.9 km/h 81% 0 mm 23 W/m2
06:20 10.6 °C 7.5 °C 1020.2 hPa WSW 8 km/h 12.9 km/h 81% 0 mm 28 W/m2
06:30 10.6 °C 7.5 °C 1020.2 hPa West 11.3 km/h 19.3 km/h 81% 0 mm 38 W/m2
06:40 10.7 °C 7.6 °C 1020.5 hPa WSW 4.8 km/h 11.3 km/h 81% 0 mm 39 W/m2
06:50 10.7 °C 7.6 °C 1020.5 hPa WSW 9.7 km/h 12.9 km/h 81% 0 mm 57 W/m2
07:00 10.7 °C 7.6 °C 1020.9 hPa WSW 8 km/h 17.7 km/h 81% 0 mm 61 W/m2
07:10 10.7 °C 7.6 °C 1020.9 hPa WSW 9.7 km/h 19.3 km/h 81% 0 mm 44 W/m2
07:20 10.8 °C 7.7 °C 1020.9 hPa WSW 11.3 km/h 20.9 km/h 81% 0 mm 107 W/m2
07:30 10.9 °C 7.6 °C 1021.2 hPa WSW 11.3 km/h 22.5 km/h 80% 0 mm 120 W/m2
07:40 11 °C 7.5 °C 1021.2 hPa West 9.7 km/h 20.9 km/h 79% 0 mm 148 W/m2
07:50 11 °C 7.3 °C 1021.6 hPa West 8 km/h 17.7 km/h 78% 0 mm 150 W/m2
08:00 11.1 °C 7.2 °C 1021.6 hPa West 8 km/h 17.7 km/h 77% 0 mm 253 W/m2
08:10 11.2 °C 6.7 °C 1021.9 hPa WSW 12.9 km/h 19.3 km/h 74% 0 mm 200 W/m2
08:20 11.3 °C 6.6 °C 1021.9 hPa WSW 11.3 km/h 17.7 km/h 73% 0 mm 265 W/m2
08:30 11.5 °C 6.6 °C 1021.9 hPa WSW 12.9 km/h 20.9 km/h 72% 0 mm 245 W/m2
08:40 11.6 °C 6.7 °C 1021.9 hPa WSW 8 km/h 16.1 km/h 72% 0 mm 262 W/m2
08:50 11.6 °C 6.1 °C 1021.9 hPa WSW 11.3 km/h 19.3 km/h 69% 0 mm 195 W/m2
09:00 11.6 °C 6.1 °C 1022.2 hPa WSW 9.7 km/h 19.3 km/h 69% 0 mm 333 W/m2
09:10 12.3 °C 6.3 °C 1022.2 hPa WSW 11.3 km/h 19.3 km/h 67% 0 mm 650 W/m2
09:20 13 °C 6.3 °C 1022.2 hPa WSW 12.9 km/h 20.9 km/h 64% 0 mm 676 W/m2
09:30 12.8 °C 5.9 °C 1022.2 hPa WSW 9.7 km/h 19.3 km/h 63% 0 mm 287 W/m2
09:40 12.6 °C 5.7 °C 1022.2 hPa WSW 8 km/h 16.1 km/h 63% 0 mm 309 W/m2
09:50 12.9 °C 5.8 °C 1022.2 hPa WSW 12.9 km/h 19.3 km/h 62% 0 mm 410 W/m2
10:00 13 °C 5.4 °C 1022.2 hPa WSW 9.7 km/h 19.3 km/h 60% 0 mm 409 W/m2
10:10 13.5 °C 5.9 °C 1022.2 hPa SW 3.2 km/h 12.9 km/h 60% 0 mm 540 W/m2
10:20 13.6 °C 5.5 °C 1021.9 hPa WSW 8 km/h 12.9 km/h 58% 0 mm 465 W/m2
10:30 14 °C 5.8 °C 1021.9 hPa WSW 12.9 km/h 20.9 km/h 58% 0 mm 803 W/m2
10:40 14.2 °C 6.1 °C 1022.2 hPa West 9.7 km/h 20.9 km/h 58% 0 mm 521 W/m2
10:50 14.6 °C 6.2 °C 1022.2 hPa WSW 14.5 km/h 20.9 km/h 57% 0 mm 411 W/m2
11:00 14.4 °C 6 °C 1022.2 hPa WSW 19.3 km/h 25.7 km/h 57% 0 mm 358 W/m2
11:10 14.3 °C 5.9 °C 1021.9 hPa WSW 11.3 km/h 32.2 km/h 57% 0 mm 397 W/m2
11:20 14.3 °C 5.9 °C 1022.2 hPa WSW 16.1 km/h 24.1 km/h 57% 0 mm 357 W/m2
11:30 14.5 °C 5.6 °C 1022.2 hPa WSW 12.9 km/h 25.7 km/h 55% 0 mm 818 W/m2
11:40 14.7 °C 5.5 °C 1022.2 hPa WSW 12.9 km/h 22.5 km/h 54% 0 mm 838 W/m2
11:50 14.9 °C 5.7 °C 1022.2 hPa WSW 11.3 km/h 20.9 km/h 54% 0 mm 816 W/m2
12:00 15.2 °C 5.7 °C 1021.9 hPa WSW 11.3 km/h 24.1 km/h 53% 0 mm 926 W/m2
12:10 15.5 °C 5.9 °C 1022.2 hPa WSW 9.7 km/h 24.1 km/h 53% 0 mm 929 W/m2
12:20 15.9 °C 6.1 °C 1021.9 hPa WSW 12.9 km/h 24.1 km/h 52% 0 mm 930 W/m2
12:30 16.2 °C 6.3 °C 1021.9 hPa WSW 19.3 km/h 27.4 km/h 52% 0 mm 930 W/m2
12:40 16.2 °C 6.3 °C 1021.9 hPa WSW 12.9 km/h 27.4 km/h 52% 0 mm 929 W/m2
12:50 16.2 °C 5.8 °C 1021.9 hPa WSW 14.5 km/h 24.1 km/h 50% 0 mm 774 W/m2
13:00 16.5 °C 6.1 °C 1021.6 hPa WSW 14.5 km/h 29 km/h 50% 0 mm 921 W/m2
13:10 16.4 °C 5.9 °C 1021.6 hPa WSW 12.9 km/h 29 km/h 50% 0 mm 915 W/m2
13:20 16.6 °C 6.1 °C 1021.6 hPa WSW 11.3 km/h 24.1 km/h 50% 0 mm 907 W/m2
13:30 16.8 °C 6 °C 1021.6 hPa WSW 11.3 km/h 27.4 km/h 49% 0 mm 897 W/m2
13:40 16.9 °C 5.8 °C 1021.6 hPa SW 16.1 km/h 27.4 km/h 48% 0 mm 887 W/m2
13:50 17.1 °C 6.3 °C 1021.6 hPa WSW 9.7 km/h 30.6 km/h 49% 0 mm 874 W/m2
14:00 17.4 °C 6.3 °C 1021.6 hPa WSW 9.7 km/h 24.1 km/h 48% 0 mm 861 W/m2
14:10 17.2 °C 5.2 °C 1021.6 hPa WSW 20.9 km/h 32.2 km/h 45% 0 mm 845 W/m2
14:20 17.4 °C 5.3 °C 1021.2 hPa WSW 20.9 km/h 27.4 km/h 45% 0 mm 829 W/m2
14:30 17.6 °C 5.5 °C 1021.6 hPa West 14.5 km/h 24.1 km/h 45% 0 mm 811 W/m2
14:40 17.8 °C 5.4 °C 1021.2 hPa WSW 14.5 km/h 24.1 km/h 44% 0 mm 791 W/m2
14:50 17.9 °C 5.1 °C 1021.2 hPa WSW 19.3 km/h 29 km/h 43% 0 mm 771 W/m2
Knjazevac, Serbia
Compliments of Weather Underground - 2 mb